Time;durP1;ratioP1;P1;durP2;ratioP2;P2;SDS_P1;SDS_P2;PMS_P1;PMS_P2;Temp;Humidity;BMP_temperature;BMP_pressure;BME280_temperature;BME280_humidity;BME280_pressure;Samples;Min_cycle;Max_cycle;Signal;HPM_P1;HPM_P2
2022/03/26 00:00:36;;;;;;;35.28;22.30;;;;;;;10.09;53.34;102872.59;3584325;40;20058;-61
2022/03/26 00:03:03;;;;;;;39.22;21.90;;;;;;;9.96;53.82;102864.88;3581516;40;20056;-61
2022/03/26 00:05:29;;;;;;;35.53;22.65;;;;;;;10.00;53.81;102879.97;3582867;40;20040;-61
2022/03/26 00:07:55;;;;;;;38.05;22.30;;;;;;;9.96;53.71;102883.66;3583537;39;20499;-61
2022/03/26 00:10:21;;;;;;;41.72;23.13;;;;;;;9.89;54.63;102871.31;3580233;40;20092;-62
2022/03/26 00:12:46;;;;;;;35.30;22.95;;;;;;;9.86;54.07;102881.25;3581252;40;20056;-62
2022/03/26 00:15:12;;;;;;;34.33;22.20;;;;;;;9.80;54.85;102876.94;3581700;40;20064;-61
2022/03/26 00:17:39;;;;;;;37.90;22.15;;;;;;;9.77;54.80;102877.00;3584700;40;20043;-62
2022/03/26 00:20:06;;;;;;;36.90;21.95;;;;;;;9.72;54.34;102878.91;3577597;40;20072;-62
2022/03/26 00:22:33;;;;;;;38.08;23.75;;;;;;;9.68;55.21;102877.25;3582055;40;20395;-62
2022/03/26 00:24:59;;;;;;;39.28;22.85;;;;;;;9.63;55.14;102874.66;3584222;40;20129;-62
2022/03/26 00:27:25;;;;;;;38.22;22.65;;;;;;;9.59;55.33;102877.47;3582261;40;20060;-62
2022/03/26 00:29:50;;;;;;;36.10;22.92;;;;;;;9.39;55.08;102843.94;3580248;40;20055;-62
2022/03/26 00:32:16;;;;;;;35.38;22.23;;;;;;;9.50;55.26;102868.72;3576902;40;20768;-62
2022/03/26 00:34:42;;;;;;;37.45;22.58;;;;;;;9.46;55.88;102867.03;3584669;39;20063;-62
2022/03/26 00:37:08;;;;;;;37.67;22.45;;;;;;;9.35;55.48;102852.97;3580316;40;20066;-62
2022/03/26 00:39:33;;;;;;;37.92;22.63;;;;;;;9.40;55.95;102871.66;3580883;40;20106;-62
2022/03/26 00:41:59;;;;;;;38.67;23.67;;;;;;;9.34;55.47;102867.31;3585582;40;20040;-61
2022/03/26 00:44:25;;;;;;;40.88;22.15;;;;;;;9.31;55.79;102872.75;3582065;40;20060;-62
2022/03/26 00:46:51;;;;;;;35.03;21.83;;;;;;;9.27;56.47;102871.06;3578825;40;20063;-62
2022/03/26 00:49:19;;;;;;;35.00;22.65;;;;;;;9.23;56.50;102859.53;3580608;40;20068;-63
2022/03/26 00:51:45;;;;;;;36.50;22.00;;;;;;;9.10;56.20;102849.97;3584182;39;20052;-62
2022/03/26 00:54:12;;;;;;;34.42;23.35;;;;;;;9.15;56.79;102876.72;3584990;40;20043;-62
2022/03/26 00:56:40;;;;;;;35.88;22.00;;;;;;;9.12;56.39;102866.06;3587456;40;20097;-62
2022/03/26 00:59:07;;;;;;;37.72;22.35;;;;;;;9.06;56.49;102867.97;3584718;40;20125;-62
2022/03/26 01:01:34;;;;;;;37.88;22.48;;;;;;;9.04;56.93;102869.81;3586413;40;20291;-63
2022/03/26 01:04:00;;;;;;;32.95;22.00;;;;;;;9.00;57.41;102867.22;3579202;40;20052;-62
2022/03/26 01:06:27;;;;;;;34.30;22.95;;;;;;;8.92;57.17;102866.53;3585059;40;20096;-62
2022/03/26 01:08:54;;;;;;;39.28;23.10;;;;;;;8.88;57.11;102856.75;3581700;40;20326;-62
2022/03/26 01:11:21;;;;;;;35.25;22.33;;;;;;;8.80;56.70;102838.16;3584982;40;20732;-62
2022/03/26 01:13:48;;;;;;;37.40;21.83;;;;;;;8.86;57.05;102862.16;3585560;39;20095;-62
2022/03/26 01:16:14;;;;;;;43.38;23.30;;;;;;;8.82;57.97;102857.78;3584199;40;20055;-62
2022/03/26 01:18:41;;;;;;;35.05;21.48;;;;;;;8.76;57.92;102853.44;3585977;40;20102;-62
2022/03/26 01:21:07;;;;;;;37.33;22.58;;;;;;;8.69;57.94;102845.53;3583616;40;20129;-62
2022/03/26 01:23:34;;;;;;;34.10;22.02;;;;;;;8.69;57.74;102851.81;3585361;40;20064;-62
2022/03/26 01:26:00;;;;;;;39.47;21.92;;;;;;;8.67;57.87;102850.09;3584852;40;20055;-62
2022/03/26 01:28:26;;;;;;;36.95;22.70;;;;;;;8.64;58.17;102852.81;3581993;40;20059;-62
2022/03/26 01:30:52;;;;;;;42.08;23.05;;;;;;;8.59;57.98;102851.13;3585211;39;20060;-62
2022/03/26 01:33:18;;;;;;;38.92;23.33;;;;;;;8.54;58.08;102847.66;3580585;40;20149;-62
2022/03/26 01:35:44;;;;;;;43.20;24.50;;;;;;;8.52;58.83;102852.16;3580340;40;20056;-63
2022/03/26 01:38:09;;;;;;;39.13;23.13;;;;;;;8.49;58.67;102849.53;3581752;40;20056;-62
2022/03/26 01:40:36;;;;;;;42.78;22.15;;;;;;;8.46;58.17;102860.31;3581522;40;20060;-62
2022/03/26 01:43:02;;;;;;;42.85;23.40;;;;;;;8.37;59.17;102842.63;3581969;40;20055;-62
2022/03/26 01:45:28;;;;;;;38.38;23.40;;;;;;;8.37;59.57;102861.38;3581240;40;20395;-62
2022/03/26 01:47:59;;;;;;;43.58;24.10;;;;;;;8.24;59.33;102849.09;3580831;40;20052;-62
2022/03/26 01:50:28;;;;;;;37.25;24.08;;;;;;;8.29;59.81;102870.47;3584937;40;20059;-62
2022/03/26 01:52:54;;;;;;;38.25;23.10;;;;;;;8.21;60.01;102859.00;3580129;40;20064;-62
2022/03/26 01:55:22;;;;;;;41.95;23.77;;;;;;;8.19;60.00;102858.16;3582548;40;20134;-62
2022/03/26 01:57:49;;;;;;;39.20;23.60;;;;;;;8.17;60.12;102868.91;3583860;40;20060;-65
2022/03/26 02:00:16;;;;;;;39.75;24.00;;;;;;;8.14;60.20;102872.50;3583444;40;20075;-63
2022/03/26 02:02:43;;;;;;;40.65;23.15;;;;;;;8.12;60.58;102869.00;3585231;40;20391;-63
2022/03/26 02:05:14;;;;;;;39.03;24.35;;;;;;;8.11;60.71;102861.84;3582289;40;20051;-62
2022/03/26 02:07:46;;;;;;;40.75;23.17;;;;;;;8.14;60.37;102858.25;3582629;40;20060;-62
2022/03/26 02:10:15;;;;;;;42.50;24.45;;;;;;;8.14;60.45;102855.56;3581290;40;20083;-62
2022/03/26 02:12:42;;;;;;;38.97;21.98;;;;;;;8.17;60.57;102860.88;3582517;40;20048;-62
2022/03/26 02:15:09;;;;;;;41.92;23.08;;;;;;;8.17;60.22;102860.00;3586616;40;20054;-62
2022/03/26 02:17:38;;;;;;;37.92;24.05;;;;;;;8.12;60.53;102860.97;3583942;40;20056;-62
2022/03/26 02:20:11;;;;;;;37.55;23.13;;;;;;;8.10;60.54;102856.53;3583941;40;20111;-62
2022/03/26 02:22:39;;;;;;;37.17;22.90;;;;;;;8.10;60.57;102860.09;3583590;40;20097;-62
2022/03/26 02:25:08;;;;;;;36.92;22.80;;;;;;;8.08;60.68;102861.91;3583519;40;20113;-62
2022/03/26 02:27:34;;;;;;;37.38;23.17;;;;;;;8.10;60.59;102857.41;3584259;40;20497;-62
2022/03/26 02:29:59;;;;;;;37.90;23.10;;;;;;;8.08;60.50;102859.22;3582237;40;20057;-63
2022/03/26 02:32:28;;;;;;;40.90;22.27;;;;;;;8.06;60.41;102857.53;3582852;40;20056;-62
2022/03/26 02:34:56;;;;;;;36.72;22.23;;;;;;;8.03;60.61;102852.22;3584323;39;20435;-62
2022/03/26 02:37:23;;;;;;;40.20;22.50;;;;;;;7.94;60.45;102844.34;3579737;40;20041;-62
2022/03/26 02:39:49;;;;;;;40.78;22.80;;;;;;;8.02;60.26;102855.78;3580932;40;20092;-62
2022/03/26 02:42:15;;;;;;;41.40;22.90;;;;;;;7.91;60.94;102856.88;3579609;40;20056;-62
2022/03/26 02:44:42;;;;;;;37.40;22.27;;;;;;;7.96;61.12;102864.84;3581823;40;20048;-62
2022/03/26 02:47:11;;;;;;;44.03;22.88;;;;;;;7.94;60.82;102863.97;3582402;40;20044;-62
2022/03/26 02:49:36;;;;;;;40.38;22.80;;;;;;;7.58;61.10;102804.84;3581311;40;20330;-62
2022/03/26 02:52:03;;;;;;;38.03;22.85;;;;;;;7.90;61.08;102865.84;3582151;40;20056;-62
2022/03/26 02:54:30;;;;;;;41.95;22.45;;;;;;;7.90;61.11;102864.94;3581239;40;20074;-62
2022/03/26 02:56:56;;;;;;;37.78;22.85;;;;;;;7.88;61.47;102861.41;3581664;40;20411;-62
2022/03/26 02:59:23;;;;;;;37.05;22.63;;;;;;;7.87;61.24;102854.28;3584096;40;20122;-61
2022/03/26 03:01:51;;;;;;;36.15;22.00;;;;;;;7.86;61.24;102855.19;3585305;40;20350;-61
2022/03/26 03:04:17;;;;;;;37.15;22.33;;;;;;;7.83;61.13;102857.91;3579738;40;20056;-62
2022/03/26 03:06:43;;;;;;;37.55;21.83;;;;;;;7.80;61.47;102861.56;3583829;40;21681;-62
2022/03/26 03:09:09;;;;;;;33.53;21.95;;;;;;;7.76;61.43;102859.81;3582622;40;20469;-63
2022/03/26 03:11:35;;;;;;;39.22;22.33;;;;;;;7.73;61.71;102857.19;3580554;40;20091;-63
2022/03/26 03:14:06;;;;;;;39.92;22.45;;;;;;;7.71;61.88;102852.78;3581290;40;20056;-63
2022/03/26 03:16:33;;;;;;;38.58;22.20;;;;;;;7.69;61.98;102863.53;3581758;40;20072;-63
2022/03/26 03:18:59;;;;;;;38.10;22.45;;;;;;;7.31;61.56;102802.63;3580727;40;20063;-62
2022/03/26 03:21:25;;;;;;;39.40;23.08;;;;;;;7.59;61.94;102853.88;3580921;40;20048;-63
2022/03/26 03:23:51;;;;;;;37.67;23.30;;;;;;;7.59;62.26;102865.47;3579684;40;20114;-63
2022/03/26 03:26:16;;;;;;;33.08;22.55;;;;;;;7.56;62.17;102865.53;3582101;40;20068;-63
2022/03/26 03:28:43;;;;;;;42.13;23.27;;;;;;;7.50;62.40;102854.03;3582219;40;20082;-63
2022/03/26 03:31:10;;;;;;;36.20;20.88;;;;;;;7.51;62.28;102867.38;3580376;40;20044;-63
2022/03/26 03:33:36;;;;;;;42.08;23.00;;;;;;;7.47;62.13;102859.44;3581303;40;20045;-63
2022/03/26 03:36:02;;;;;;;40.50;23.63;;;;;;;7.45;62.55;102856.78;3578812;40;20050;-63
2022/03/26 03:38:27;;;;;;;39.30;23.23;;;;;;;7.41;62.85;102860.41;3580154;40;20064;-63
2022/03/26 03:40:53;;;;;;;37.20;22.13;;;;;;;7.38;62.63;102847.97;3581271;39;20052;-63
2022/03/26 03:43:19;;;;;;;36.17;21.67;;;;;;;7.36;62.22;102855.16;3579952;40;20069;-63
2022/03/26 03:45:45;;;;;;;38.33;23.70;;;;;;;7.33;63.00;102857.00;3581853;40;20174;-63
2022/03/26 03:48:10;;;;;;;40.75;22.95;;;;;;;7.30;63.08;102857.03;3581331;40;20051;-63
2022/03/26 03:50:36;;;;;;;46.55;23.90;;;;;;;7.30;63.45;102862.38;3581381;40;20413;-63
2022/03/26 03:53:02;;;;;;;36.35;22.90;;;;;;;7.29;63.02;102860.59;3580896;40;20067;-62
2022/03/26 03:55:28;;;;;;;39.35;23.50;;;;;;;7.26;63.65;102861.53;3581033;40;20380;-63
2022/03/26 03:57:55;;;;;;;40.30;22.63;;;;;;;7.24;63.15;102863.38;3580979;40;20071;-62
2022/03/26 04:00:21;;;;;;;40.13;22.85;;;;;;;7.03;63.52;102843.16;3579189;40;20040;-63
2022/03/26 04:02:47;;;;;;;46.15;23.67;;;;;;;7.14;63.86;102867.09;3582292;40;20059;-63
2022/03/26 04:05:13;;;;;;;42.05;23.60;;;;;;;7.08;64.32;102868.06;3580885;40;20520;-63
2022/03/26 04:07:41;;;;;;;44.85;22.58;;;;;;;6.97;63.89;102848.59;3581961;40;20320;-64
2022/03/26 04:10:09;;;;;;;40.38;23.38;;;;;;;7.09;64.00;102876.97;3582316;39;20150;-63
2022/03/26 04:12:40;;;;;;;42.00;23.23;;;;;;;7.10;64.18;102876.91;3581018;40;20084;-63
2022/03/26 04:15:08;;;;;;;45.17;23.98;;;;;;;7.05;63.67;102861.88;3582950;40;20052;-63
2022/03/26 04:17:34;;;;;;;37.92;22.90;;;;;;;7.08;64.13;102881.41;3585292;39;20055;-63
2022/03/26 04:20:08;;;;;;;39.85;22.42;;;;;;;7.06;63.60;102875.19;3582943;40;20055;-63
2022/03/26 04:22:35;;;;;;;41.20;22.80;;;;;;;7.04;63.75;102877.03;3581787;40;20276;-64
2022/03/26 04:25:01;;;;;;;41.30;22.90;;;;;;;7.03;63.52;102879.72;3580565;39;20051;-63
2022/03/26 04:27:26;;;;;;;40.63;23.15;;;;;;;7.00;64.18;102883.31;3583047;40;20051;-63
2022/03/26 04:29:53;;;;;;;40.00;22.67;;;;;;;6.97;63.98;102878.00;3579913;40;20059;-63
2022/03/26 04:32:18;;;;;;;42.42;23.33;;;;;;;6.97;64.28;102883.34;3578870;40;20059;-63
2022/03/26 04:34:44;;;;;;;41.65;22.98;;;;;;;6.95;63.82;102877.16;3579051;40;20056;-63
2022/03/26 04:37:10;;;;;;;37.67;22.20;;;;;;;6.85;63.72;102860.38;3606463;22;20059;-63
2022/03/26 04:39:35;;;;;;;41.38;23.50;;;;;;;6.90;64.31;102874.53;3586564;40;20378;-63
2022/03/26 04:42:01;;;;;;;37.58;23.50;;;;;;;6.90;64.20;102870.97;3586651;40;20394;-63
2022/03/26 04:44:27;;;;;;;37.90;22.08;;;;;;;6.88;64.08;102871.00;3588481;40;20064;-63
2022/03/26 04:46:53;;;;;;;38.10;21.92;;;;;;;6.88;64.24;102872.78;3583594;40;20052;-63
2022/03/26 04:49:19;;;;;;;36.92;22.48;;;;;;;6.85;63.86;102870.13;3579224;40;20086;-63
2022/03/26 04:51:45;;;;;;;42.63;24.10;;;;;;;6.82;64.20;102868.41;3581574;40;20052;-63
2022/03/26 04:54:11;;;;;;;43.97;21.80;;;;;;;6.81;64.09;102866.63;3579614;40;20102;-63
2022/03/26 04:56:36;;;;;;;45.95;23.02;;;;;;;6.80;64.12;102870.22;3581574;40;20068;-63
2022/03/26 04:59:02;;;;;;;41.50;23.67;;;;;;;6.79;64.24;102870.22;3578024;40;20053;-63
2022/03/26 05:01:28;;;;;;;35.47;23.10;;;;;;;6.77;64.41;102861.38;3579388;40;20056;-63
2022/03/26 05:03:53;;;;;;;37.75;22.33;;;;;;;6.74;64.30;102863.16;3582605;40;20152;-63
2022/03/26 05:06:19;;;;;;;41.72;22.05;;;;;;;6.66;64.58;102859.72;3580269;40;20102;-63
2022/03/26 05:08:45;;;;;;;41.25;23.20;;;;;;;6.66;64.56;102857.03;3578972;40;20052;-63
2022/03/26 05:11:11;;;;;;;41.92;22.90;;;;;;;6.69;64.78;102867.69;3580065;40;20145;-63
2022/03/26 05:13:36;;;;;;;36.20;21.92;;;;;;;6.68;64.46;102870.38;3577626;40;20320;-63
2022/03/26 05:16:03;;;;;;;37.60;21.38;;;;;;;6.66;64.57;102866.81;3577189;40;20384;-63
2022/03/26 05:18:28;;;;;;;41.45;22.80;;;;;;;6.65;64.97;102867.75;3578679;40;20055;-63
2022/03/26 05:20:57;;;;;;;36.17;22.92;;;;;;;6.63;64.37;102864.19;3578483;40;20091;-63
2022/03/26 05:23:24;;;;;;;41.17;22.70;;;;;;;6.62;65.07;102874.00;3579344;40;20053;-63
2022/03/26 05:25:50;;;;;;;41.58;23.42;;;;;;;6.60;65.27;102883.84;3578652;40;20064;-63
2022/03/26 05:28:16;;;;;;;41.60;24.08;;;;;;;6.56;65.93;102876.75;3578357;40;20075;-63
2022/03/26 05:30:42;;;;;;;39.35;24.40;;;;;;;6.56;65.46;102879.41;3577618;40;20059;-63
2022/03/26 05:33:08;;;;;;;47.97;23.77;;;;;;;6.38;65.45;102859.16;3576429;40;20044;-63
2022/03/26 05:35:34;;;;;;;43.10;23.48;;;;;;;6.51;65.87;102889.28;3576647;40;20075;-63
2022/03/26 05:38:00;;;;;;;44.17;22.90;;;;;;;6.46;66.11;102891.13;3580331;40;20311;-63
2022/03/26 05:40:26;;;;;;;41.83;23.10;;;;;;;6.46;66.22;102888.44;3578286;40;20059;-63
2022/03/26 05:42:53;;;;;;;42.25;23.48;;;;;;;6.36;66.57;102884.13;3580431;40;20125;-61
2022/03/26 05:45:19;;;;;;;37.80;22.55;;;;;;;6.45;66.30;102895.59;3577772;40;20055;-61
2022/03/26 05:47:49;;;;;;;44.15;23.85;;;;;;;6.15;66.34;102846.09;3579528;40;20384;-61
2022/03/26 05:50:15;;;;;;;43.10;23.65;;;;;;;6.49;66.23;102899.09;3577773;40;20058;-61
2022/03/26 05:52:41;;;;;;;38.97;22.20;;;;;;;6.50;66.42;102907.13;3578584;40;20107;-61
2022/03/26 05:55:08;;;;;;;43.33;23.00;;;;;;;6.53;65.96;102907.97;3580615;40;20056;-61
2022/03/26 05:57:34;;;;;;;41.58;23.45;;;;;;;6.54;66.26;102910.63;3579884;40;20048;-61
2022/03/26 06:00:01;;;;;;;40.08;22.83;;;;;;;6.54;66.20;102913.31;3578574;40;20048;-61
2022/03/26 06:02:27;;;;;;;43.80;23.20;;;;;;;6.53;66.51;102915.97;3580245;40;20045;-62
2022/03/26 06:04:53;;;;;;;47.70;24.05;;;;;;;6.58;66.50;102924.84;3578917;40;20060;-61
2022/03/26 06:07:18;;;;;;;38.65;23.38;;;;;;;6.60;66.33;102929.28;3579579;40;20053;-62
2022/03/26 06:09:44;;;;;;;38.10;23.23;;;;;;;6.66;65.76;102931.88;3579754;40;20064;-63
2022/03/26 06:12:10;;;;;;;39.13;22.17;;;;;;;6.73;66.09;102925.53;3577940;40;20056;-62
2022/03/26 06:14:35;;;;;;;38.28;22.80;;;;;;;6.87;65.43;102927.16;3582341;40;20125;-62
2022/03/26 06:17:01;;;;;;;42.35;22.80;;;;;;;6.98;65.42;102925.25;3579402;40;20044;-62
2022/03/26 06:19:27;;;;;;;38.33;22.70;;;;;;;7.07;64.77;102919.78;3580359;40;20068;-63
2022/03/26 06:21:53;;;;;;;41.55;23.30;;;;;;;7.22;64.23;102930.25;3582266;40;20106;-63
2022/03/26 06:24:20;;;;;;;42.05;23.25;;;;;;;7.36;64.05;102926.50;3580072;40;20064;-63
2022/03/26 06:26:48;;;;;;;38.42;23.33;;;;;;;7.29;63.66;102882.00;3581249;40;20473;-62
2022/03/26 06:29:14;;;;;;;39.42;23.20;;;;;;;7.61;63.39;102927.00;3577634;40;20087;-62
2022/03/26 06:31:41;;;;;;;39.65;22.60;;;;;;;7.73;62.59;102925.91;3580229;40;20080;-63
2022/03/26 06:34:07;;;;;;;40.03;23.08;;;;;;;7.83;62.49;102928.44;3579288;40;20287;-63
2022/03/26 06:36:34;;;;;;;36.38;22.58;;;;;;;7.90;61.97;102930.09;3577374;40;20062;-63
2022/03/26 06:39:02;;;;;;;42.03;23.30;;;;;;;8.02;61.52;102934.34;3577874;40;20355;-63
2022/03/26 06:41:27;;;;;;;38.70;22.55;;;;;;;8.12;61.62;102938.66;3580219;40;20053;-62
2022/03/26 06:43:53;;;;;;;47.97;24.48;;;;;;;8.27;61.13;102936.59;3578007;40;20068;-62
2022/03/26 06:46:19;;;;;;;41.13;23.15;;;;;;;8.30;60.88;102924.00;3579863;40;20394;-63
2022/03/26 06:48:44;;;;;;;38.70;22.77;;;;;;;8.54;60.29;102946.84;3580267;40;20048;-63
2022/03/26 06:51:10;;;;;;;39.33;22.85;;;;;;;8.64;60.27;102943.97;3578137;40;20071;-63
2022/03/26 06:53:36;;;;;;;37.40;22.35;;;;;;;8.70;59.74;102943.84;3578344;40;20138;-63
2022/03/26 06:56:06;;;;;;;40.47;23.67;;;;;;;8.78;60.19;102949.94;3579879;39;20393;-62
2022/03/26 06:58:32;;;;;;;36.38;22.75;;;;;;;8.87;59.19;102952.44;3579216;40;20049;-63
2022/03/26 07:00:58;;;;;;;44.78;22.50;;;;;;;8.97;59.14;102951.31;3577965;40;20055;-63
2022/03/26 07:03:24;;;;;;;36.65;23.40;;;;;;;9.04;58.96;102952.97;3579636;40;20056;-63
2022/03/26 07:05:50;;;;;;;36.97;23.38;;;;;;;9.11;58.27;102951.03;3578657;40;20064;-62
2022/03/26 07:08:16;;;;;;;42.03;24.27;;;;;;;9.23;58.60;102944.53;3577344;40;20084;-61
2022/03/26 07:10:45;;;;;;;39.90;24.30;;;;;;;9.38;57.93;102959.38;3578774;40;20164;-63
2022/03/26 07:13:14;;;;;;;34.47;21.67;;;;;;;9.40;57.46;102936.97;3579942;40;20075;-63
2022/03/26 07:15:41;;;;;;;41.85;23.48;;;;;;;9.22;57.23;102879.22;3580642;40;20060;-63
2022/03/26 07:18:08;;;;;;;37.35;23.25;;;;;;;9.85;56.07;102960.06;3578995;40;20084;-63
2022/03/26 07:20:33;;;;;;;39.90;22.73;;;;;;;9.99;56.05;102957.94;3576862;40;20044;-63
2022/03/26 07:22:59;;;;;;;44.17;24.23;;;;;;;10.23;55.96;102962.66;3581366;40;20054;-63
2022/03/26 07:25:25;;;;;;;41.25;23.63;;;;;;;10.50;55.59;102964.69;3576062;40;20110;-63
2022/03/26 07:27:51;;;;;;;42.35;22.98;;;;;;;10.78;54.38;102957.63;3577208;40;20060;-63
2022/03/26 07:30:17;;;;;;;41.42;23.20;;;;;;;11.09;53.64;102954.03;3578786;40;20139;-63
2022/03/26 07:32:42;;;;;;;37.42;23.63;;;;;;;11.43;52.46;102947.63;3582778;40;20056;-63
2022/03/26 07:35:08;;;;;;;37.97;22.95;;;;;;;11.70;50.83;102962.03;3580466;40;20428;-63
2022/03/26 07:37:34;;;;;;;44.83;23.98;;;;;;;11.91;51.09;102961.34;3578146;40;20472;-63
2022/03/26 07:40:00;;;;;;;42.05;22.05;;;;;;;12.20;49.71;102956.78;3579357;40;20060;-64
2022/03/26 07:42:27;;;;;;;34.72;22.35;;;;;;;12.49;48.81;102966.56;3578712;40;20051;-62
2022/03/26 07:44:53;;;;;;;34.97;22.23;;;;;;;12.73;48.85;102965.69;3581106;40;20044;-63
2022/03/26 07:47:19;;;;;;;37.97;22.83;;;;;;;12.98;48.60;102967.47;3579515;40;20362;-62
2022/03/26 07:49:45;;;;;;;38.38;22.02;;;;;;;13.27;47.83;102973.63;3578484;40;20067;-62
2022/03/26 07:52:11;;;;;;;33.22;22.42;;;;;;;13.55;46.54;102971.59;3580792;40;20061;-62
2022/03/26 07:54:38;;;;;;;39.50;21.65;;;;;;;13.77;46.16;102962.63;3579011;40;20068;-62
2022/03/26 07:57:04;;;;;;;31.10;21.20;;;;;;;14.02;45.51;102975.97;3576272;40;20076;-63
2022/03/26 07:59:31;;;;;;;36.97;21.50;;;;;;;14.27;44.74;102973.09;3578397;40;20130;-62
2022/03/26 08:01:56;;;;;;;36.45;22.02;;;;;;;14.53;44.97;102975.59;3580521;40;20048;-63
2022/03/26 08:04:22;;;;;;;44.72;21.55;;;;;;;14.80;44.61;102972.59;3580410;40;20052;-64
2022/03/26 08:06:47;;;;;;;33.75;20.25;;;;;;;15.05;43.45;102967.81;3578638;40;20122;-64
2022/03/26 08:09:13;;;;;;;34.60;20.52;;;;;;;15.23;43.21;102967.91;3577056;40;20064;-63
2022/03/26 08:11:39;;;;;;;33.75;21.15;;;;;;;15.49;42.96;102972.97;3577681;40;20056;-63
2022/03/26 08:14:04;;;;;;;34.88;21.60;;;;;;;15.76;42.45;102970.78;3578072;40;20052;-63
2022/03/26 08:16:30;;;;;;;37.33;24.58;;;;;;;16.02;40.97;102974.91;3579934;40;20151;-64
2022/03/26 08:18:55;;;;;;;36.80;21.17;;;;;;;16.28;41.10;102966.38;3577664;40;20350;-62
2022/03/26 08:21:21;;;;;;;32.00;20.35;;;;;;;16.48;40.32;102969.78;3576778;40;20082;-62
2022/03/26 08:23:47;;;;;;;33.80;20.08;;;;;;;16.71;40.06;102968.59;3579613;40;20055;-63
2022/03/26 08:26:23;;;;;;;32.90;20.52;;;;;;;16.79;40.08;102961.91;3578662;40;20076;-62
2022/03/26 08:28:54;;;;;;;31.38;19.70;;;;;;;16.95;38.70;102957.38;3577401;40;20056;-63
2022/03/26 08:31:24;;;;;;;31.15;18.48;;;;;;;17.37;38.19;102975.84;3577754;40;20048;-64
2022/03/26 08:33:49;;;;;;;29.83;18.50;;;;;;;17.49;38.56;102979.72;3587319;40;20052;-63
2022/03/26 08:36:17;;;;;;;31.58;18.58;;;;;;;17.66;38.04;102980.59;3580276;40;20475;-64
2022/03/26 08:38:46;;;;;;;36.10;18.92;;;;;;;17.89;37.35;102982.91;3579471;40;20060;-62
2022/03/26 08:41:21;;;;;;;29.30;19.27;;;;;;;18.12;37.58;102984.28;3577522;40;20048;-63
2022/03/26 08:43:52;;;;;;;31.90;18.77;;;;;;;18.31;36.61;102984.06;3581748;40;20052;-63
2022/03/26 08:46:19;;;;;;;29.55;17.83;;;;;;;18.57;36.77;102985.19;3577073;40;20051;-64
2022/03/26 08:48:46;;;;;;;29.65;18.77;;;;;;;18.75;35.84;102984.09;3581290;40;20141;-64
2022/03/26 08:51:12;;;;;;;30.48;19.75;;;;;;;18.78;36.44;102986.63;3579191;40;20056;-63
2022/03/26 08:53:39;;;;;;;30.05;20.60;;;;;;;18.87;36.83;102992.47;3580596;40;20326;-64
2022/03/26 08:56:06;;;;;;;30.05;20.38;;;;;;;18.81;37.60;102971.94;3581160;40;20052;-64
2022/03/26 08:58:33;;;;;;;33.20;20.73;;;;;;;18.94;37.17;102963.88;3580968;40;20045;-62
2022/03/26 09:00:59;;;;;;;32.25;19.30;;;;;;;19.18;35.82;102986.81;3581662;40;20044;-62
2022/03/26 09:03:24;;;;;;;30.08;19.50;;;;;;;19.35;35.22;102982.16;3583710;40;20051;-63
2022/03/26 09:05:52;;;;;;;32.28;20.35;;;;;;;19.39;35.66;102978.25;3581311;40;20287;-62
2022/03/26 09:08:19;;;;;;;30.90;19.05;;;;;;;19.43;36.07;102987.97;3580867;40;20383;-63
2022/03/26 09:10:45;;;;;;;27.40;19.33;;;;;;;19.51;34.93;102988.38;3582600;40;20084;-63
2022/03/26 09:13:12;;;;;;;32.20;19.33;;;;;;;19.57;36.27;102993.44;3578265;40;20068;-63
2022/03/26 09:15:38;;;;;;;27.13;18.95;;;;;;;19.54;34.84;102999.09;3582082;40;20068;-63
2022/03/26 09:18:05;;;;;;;26.75;18.63;;;;;;;19.56;35.14;102997.09;3582565;40;20052;-63
2022/03/26 09:20:31;;;;;;;30.17;20.73;;;;;;;19.67;35.77;102999.19;3583235;40;20354;-63
2022/03/26 09:22:56;;;;;;;33.40;22.42;;;;;;;19.56;35.04;102945.28;3582137;40;20079;-62
2022/03/26 09:25:22;;;;;;;30.88;21.58;;;;;;;19.96;35.08;102999.97;3582133;40;20381;-63
2022/03/26 09:27:49;;;;;;;40.97;24.45;;;;;;;19.96;34.49;102999.97;3583672;40;20214;-62
2022/03/26 09:30:16;;;;;;;33.58;21.77;;;;;;;19.82;35.10;103003.63;3581287;40;20045;-62
2022/03/26 09:32:46;;;;;;;31.02;20.65;;;;;;;19.79;35.58;103002.94;3582651;40;20061;-63
2022/03/26 09:35:14;;;;;;;36.35;20.80;;;;;;;19.91;34.89;103007.56;3581543;40;20121;-62
2022/03/26 09:37:41;;;;;;;35.72;22.73;;;;;;;20.05;34.38;102999.34;3581138;40;20052;-62
2022/03/26 09:40:11;;;;;;;33.67;21.73;;;;;;;20.02;34.98;102998.69;3580827;40;20094;-62
2022/03/26 09:42:39;;;;;;;34.13;22.00;;;;;;;20.13;34.88;102999.69;3579857;40;20056;-62
2022/03/26 09:45:08;;;;;;;31.65;22.23;;;;;;;20.32;34.63;102991.13;3582069;40;20137;-62
2022/03/26 09:47:35;;;;;;;34.65;22.08;;;;;;;20.40;34.46;102996.94;3580175;40;20064;-62
2022/03/26 09:50:05;;;;;;;34.83;22.90;;;;;;;20.24;34.86;102981.72;3579424;40;20045;-63
2022/03/26 09:52:32;;;;;;;37.47;20.80;;;;;;;20.40;34.60;102987.88;3580626;40;20064;-62
2022/03/26 09:54:58;;;;;;;29.77;20.35;;;;;;;20.63;35.15;102989.03;3581281;40;20126;-63
2022/03/26 09:57:24;;;;;;;34.17;20.08;;;;;;;20.81;33.40;102985.00;3579431;40;20959;-63
2022/03/26 09:59:50;;;;;;;29.17;20.17;;;;;;;20.89;33.35;102981.72;3580896;40;20064;-63
2022/03/26 10:02:16;;;;;;;31.20;21.33;;;;;;;20.88;33.17;102966.31;3579886;40;20055;-62
2022/03/26 10:04:44;;;;;;;28.45;20.52;;;;;;;21.07;32.86;102977.66;3580310;40;20048;-63
2022/03/26 10:07:11;;;;;;;31.30;21.45;;;;;;;21.22;32.03;102981.16;3578842;40;20052;-63
2022/03/26 10:09:38;;;;;;;32.55;22.38;;;;;;;21.18;32.88;102986.94;3578869;40;20057;-64
2022/03/26 10:12:21;;;;;;;29.40;21.48;;;;;;;21.16;32.73;102981.59;3586090;39;20098;-63
2022/03/26 10:15:01;;;;;;;37.53;23.27;;;;;;;21.04;32.60;102983.34;3580163;40;20052;-64
2022/03/26 10:17:37;;;;;;;34.33;21.63;;;;;;;21.10;33.23;102982.03;3577489;40;20057;-62
2022/03/26 10:20:12;;;;;;;33.17;22.65;;;;;;;21.02;33.69;102965.28;3580005;40;20051;-63
2022/03/26 10:22:49;;;;;;;28.98;20.75;;;;;;;21.23;32.93;102987.50;3576897;40;20052;-62
2022/03/26 10:25:21;;;;;;;28.70;18.30;;;;;;;21.23;32.24;102987.50;3577891;40;20049;-62
2022/03/26 10:27:50;;;;;;;27.92;17.52;;;;;;;21.16;31.87;102959.72;3582283;40;20059;-63
2022/03/26 10:33:27;;;;;;;25.67;17.30;;;;;;;21.39;31.46;102987.28;3579188;40;20122;-60
2022/03/26 10:38:31;;;;;;;23.38;14.98;;;;;;;21.24;30.51;102959.13;3573871;40;20058;-66
2022/03/26 10:41:05;;;;;;;26.17;15.30;;;;;;;21.22;29.99;102958.41;3578608;40;20056;-67
2022/03/26 10:43:30;;;;;;;25.58;14.52;;;;;;;21.31;29.06;102975.00;3579978;40;20107;-66
2022/03/26 10:45:58;;;;;;;23.58;15.43;;;;;;;21.21;29.97;102978.50;3579399;40;20061;-68
2022/03/26 10:48:28;;;;;;;25.70;15.95;;;;;;;21.25;29.85;102980.94;3570320;40;20056;-67
2022/03/26 10:51:01;;;;;;;29.52;15.27;;;;;;;20.88;30.63;102903.41;3573421;40;20056;-67
2022/03/26 10:53:56;;;;;;;24.20;14.32;;;;;;;21.55;30.38;102957.78;3570696;40;20694;-68
2022/03/26 10:56:25;;;;;;;25.33;15.50;;;;;;;21.74;29.33;102966.34;3569385;40;20048;-67
2022/03/26 10:58:50;;;;;;;23.25;15.25;;;;;;;21.87;29.72;102969.03;3570598;40;20466;-66
2022/03/26 11:01:16;;;;;;;25.48;15.85;;;;;;;21.85;29.10;102979.25;3572589;40;20052;-70
2022/03/26 11:03:42;;;;;;;24.25;13.70;;;;;;;21.97;28.07;102948.19;3570437;40;20049;-67
2022/03/26 11:06:10;;;;;;;23.75;13.52;;;;;;;22.30;27.52;102968.53;3571562;40;20134;-68
2022/03/26 11:08:38;;;;;;;23.35;12.70;;;;;;;22.20;27.03;102930.03;3569880;40;20099;-67
2022/03/26 11:11:12;;;;;;;22.48;11.55;;;;;;;22.41;27.01;102957.59;3567855;40;20493;-66
2022/03/26 11:13:53;;;;;;;19.85;11.80;;;;;;;22.57;27.22;102956.38;3570778;40;20061;-67
2022/03/26 11:16:49;;;;;;;20.50;12.32;;;;;;;22.28;26.96;102921.19;3573272;40;20048;-66
2022/03/26 11:19:30;;;;;;;20.17;11.20;;;;;;;22.70;26.82;102973.59;3568782;40;20392;-67